This is the latest recevied weather packets stored in our database for station/object DO7CRZ-12. If no packets are shown the sender has not sent any weather packets the latest 10 day(s).
| Time | Temp. | Humidity | Pressure | Rain* | Wind** | Luminosity | Snow |
|---|---|---|---|---|---|---|---|
| 1777970240 | 26.67° C | 43% | 1008.3 hPa | 0 mm | - | 430 W/m² | - |
| 1777969637 | 26.11° C | 43% | 1008.3 hPa | 0 mm | - | 271 W/m² | - |
| 1777969049 | 25° C | 46% | 1008.4 hPa | 0 mm | - | 409 W/m² | - |
| 1777968446 | 22.78° C | 52% | 1008.6 hPa | 0 mm | - | 241 W/m² | - |
| 1777967844 | 21.11° C | 54% | 1008.6 hPa | 0 mm | - | 97 W/m² | - |
| 1777967241 | 20.56° C | 58% | 1008.7 hPa | 0 mm | - | 89 W/m² | - |
| 1777966638 | 19.44° C | 61% | 1008.7 hPa | 0 mm | - | 86 W/m² | - |
| 1777966049 | 18.33° C | 63% | 1008.8 hPa | 0 mm | - | 81 W/m² | - |
| 1777965447 | 18.33° C | 63% | 1008.8 hPa | 0 mm | - | 78 W/m² | - |
| 1777964844 | 17.78° C | 64% | 1008.7 hPa | 0 mm | - | 77 W/m² | - |
| 1777964241 | 17.78° C | 64% | 1008.7 hPa | 0 mm | - | 85 W/m² | - |
| 1777963638 | 17.78° C | 64% | 1008.9 hPa | 0 mm | - | 80 W/m² | - |
| 1777963035 | 17.78° C | 66% | 1008.8 hPa | 0 mm | - | 82 W/m² | - |
| 1777962448 | 17.78° C | 67% | 1008.8 hPa | 0 mm | - | 68 W/m² | - |
| 1777961844 | 17.22° C | 68% | 1008.7 hPa | 0 mm | - | 58 W/m² | - |
| 1777961242 | 16.67° C | 68% | 1008.6 hPa | 0 mm | - | 58 W/m² | - |
| 1777960639 | 16.11° C | 72% | 1008.6 hPa | 0 mm | - | 47 W/m² | - |
| 1777960036 | 15.56° C | 74% | 1008.7 hPa | 0 mm | - | 38 W/m² | - |
| 1777959448 | 15° C | 74% | 1008.9 hPa | 0 mm | - | 26 W/m² | - |
| 1777958845 | 15.56° C | 74% | 1009 hPa | 0 mm | - | 23 W/m² | - |
| 1777958243 | 15.56° C | 73% | 1008.7 hPa | 0 mm | - | 24 W/m² | - |
| 1777957639 | 16.11° C | 72% | 1008.5 hPa | 0 mm | - | 24 W/m² | - |
| 1777957037 | 16.11° C | 72% | 1008.4 hPa | 0 mm | - | 23 W/m² | - |
| 1777956449 | 15.56° C | 72% | 1008.6 hPa | 0 mm | - | 21 W/m² | - |
| 1777955846 | 15.56° C | 72% | 1008.6 hPa | 0 mm | - | 18 W/m² | - |
* Rain latest hour (hover to see other rain measurements)
** Current wind speed in m/s (hover to see current wind gust speed)